createdAt,value
2023-01-19T00:00:10.811Z,4.50
2023-01-19T00:02:38.402Z,4.33
2023-01-19T00:05:06.198Z,4.25
2023-01-19T00:07:33.396Z,3.80
2023-01-19T00:10:00.354Z,2.40
2023-01-19T00:12:27.557Z,1.85
2023-01-19T00:14:54.350Z,0.80
2023-01-19T00:17:21.225Z,0.80
2023-01-19T00:19:48.057Z,0.30
2023-01-19T00:22:14.867Z,0.30
2023-01-19T00:24:41.892Z,0.28
2023-01-19T00:27:08.685Z,0.20
2023-01-19T00:29:35.545Z,0.20
2023-01-19T00:32:04.287Z,0.20
2023-01-19T00:34:36.992Z,0.30
2023-01-19T00:37:04.549Z,0.20
2023-01-19T00:39:31.407Z,0.20
2023-01-19T00:42:17.107Z,0.40
2023-01-19T00:44:44.080Z,0.30
2023-01-19T00:47:10.995Z,0.30
2023-01-19T00:49:37.863Z,0.20
2023-01-19T00:52:04.962Z,0.53
2023-01-19T00:54:31.895Z,0.22
2023-01-19T00:56:58.788Z,0.40
2023-01-19T00:59:25.844Z,0.60
2023-01-19T01:01:52.840Z,0.20
2023-01-19T01:04:19.836Z,0.20
2023-01-19T01:06:46.664Z,0.20
2023-01-19T01:09:13.540Z,0.20
2023-01-19T01:11:42.021Z,0.80
2023-01-19T01:14:10.505Z,0.20
2023-01-19T01:16:37.507Z,0.20
2023-01-19T01:19:04.513Z,0.20
2023-01-19T01:21:31.347Z,0.20
2023-01-19T01:23:58.129Z,0.20
2023-01-19T01:26:27.057Z,0.20
2023-01-19T01:28:54.561Z,0.20
2023-01-19T01:31:21.655Z,0.20
2023-01-19T01:33:48.771Z,0.20
2023-01-19T01:36:15.612Z,0.20
2023-01-19T01:38:42.531Z,0.20
2023-01-19T01:41:09.713Z,0.20
2023-01-19T01:43:51.613Z,0.20
2023-01-19T01:46:20.001Z,0.20
2023-01-19T01:49:10.508Z,0.20
2023-01-19T01:51:40.928Z,0.20
2023-01-19T01:54:17.081Z,0.20
2023-01-19T01:56:49.767Z,0.20
2023-01-19T01:59:29.401Z,0.20
2023-01-19T02:02:18.289Z,0.20
